Bluffton, Ohio
Current Conditions -  °F | °C
As of 12:53 PM on Friday 24 Oct 2014 (Local Time) from KFDY Reporting Station
Overcast Overcast  
Wind Chill: 60°   Ceiling: 5000
Heat Index: 60°   Visibility: 9mi
Dew Point: 42°   Wind: 6mph
Humidity: 51%   Direction: 270°W
Pressure: 30.07"   Gusts: NA
Location:  40.9°N, 83.89°W
Report Text: KFDY 241653Z AUTO 27005KT 9SM OVC050 16/06 A3007 RMK AO2 SLP181 T01560056
Loading
Personal Weather Stations






























Interactive Weather Map
Tropical Storm Tracking
New forecast layout! Learn more

10-Day Weather Forecast

Advertisements
Track Severe Weather on mobile